sensor_id;sensor_type;location;lat;lon;timestamp;P1;durP1;ratioP1;P2;durP2;ratioP2
60098;SDS011;62818;49.394;8.686;2023-01-26T00:00:23;38.83;;;29.20;;
60098;SDS011;62818;49.394;8.686;2023-01-26T00:01:24;44.00;;;29.53;;
60098;SDS011;62818;49.394;8.686;2023-01-26T00:02:28;45.42;;;29.90;;
60098;SDS011;62818;49.394;8.686;2023-01-26T00:03:28;44.40;;;30.47;;
60098;SDS011;62818;49.394;8.686;2023-01-26T00:04:29;39.97;;;28.97;;
60098;SDS011;62818;49.394;8.686;2023-01-26T00:05:29;44.47;;;31.37;;
60098;SDS011;62818;49.394;8.686;2023-01-26T00:06:30;44.53;;;29.77;;
60098;SDS011;62818;49.394;8.686;2023-01-26T00:07:30;46.97;;;31.33;;
60098;SDS011;62818;49.394;8.686;2023-01-26T00:08:34;45.17;;;29.90;;
60098;SDS011;62818;49.394;8.686;2023-01-26T00:09:36;43.10;;;30.42;;
60098;SDS011;62818;49.394;8.686;2023-01-26T00:10:37;43.67;;;32.10;;
60098;SDS011;62818;49.394;8.686;2023-01-26T00:11:39;44.85;;;32.13;;
60098;SDS011;62818;49.394;8.686;2023-01-26T00:12:41;45.20;;;32.28;;
60098;SDS011;62818;49.394;8.686;2023-01-26T00:13:41;46.73;;;32.93;;
60098;SDS011;62818;49.394;8.686;2023-01-26T00:14:43;45.38;;;31.55;;
60098;SDS011;62818;49.394;8.686;2023-01-26T00:15:49;48.90;;;32.72;;
60098;SDS011;62818;49.394;8.686;2023-01-26T00:16:49;44.67;;;31.93;;
60098;SDS011;62818;49.394;8.686;2023-01-26T00:17:50;48.87;;;34.80;;
60098;SDS011;62818;49.394;8.686;2023-01-26T00:18:50;43.40;;;32.63;;
60098;SDS011;62818;49.394;8.686;2023-01-26T00:19:52;44.23;;;32.87;;
60098;SDS011;62818;49.394;8.686;2023-01-26T00:20:54;49.25;;;34.30;;
60098;SDS011;62818;49.394;8.686;2023-01-26T00:21:57;46.03;;;32.92;;
60098;SDS011;62818;49.394;8.686;2023-01-26T00:22:57;45.27;;;33.27;;
60098;SDS011;62818;49.394;8.686;2023-01-26T00:23:58;47.87;;;32.73;;
60098;SDS011;62818;49.394;8.686;2023-01-26T00:24:59;49.08;;;33.13;;
60098;SDS011;62818;49.394;8.686;2023-01-26T00:25:59;48.87;;;34.60;;
60098;SDS011;62818;49.394;8.686;2023-01-26T00:27:00;46.97;;;32.75;;
60098;SDS011;62818;49.394;8.686;2023-01-26T00:28:01;46.80;;;33.03;;
60098;SDS011;62818;49.394;8.686;2023-01-26T00:29:01;47.93;;;32.47;;
60098;SDS011;62818;49.394;8.686;2023-01-26T00:30:02;49.20;;;34.17;;
60098;SDS011;62818;49.394;8.686;2023-01-26T00:31:04;45.22;;;33.00;;
60098;SDS011;62818;49.394;8.686;2023-01-26T00:32:07;48.10;;;33.10;;
60098;SDS011;62818;49.394;8.686;2023-01-26T00:33:07;48.10;;;33.33;;
60098;SDS011;62818;49.394;8.686;2023-01-26T00:34:08;47.67;;;32.73;;
60098;SDS011;62818;49.394;8.686;2023-01-26T00:35:08;44.77;;;31.90;;
60098;SDS011;62818;49.394;8.686;2023-01-26T00:36:09;46.90;;;33.33;;
60098;SDS011;62818;49.394;8.686;2023-01-26T00:37:10;47.67;;;33.90;;
60098;SDS011;62818;49.394;8.686;2023-01-26T00:38:11;45.03;;;33.13;;
60098;SDS011;62818;49.394;8.686;2023-01-26T00:39:12;50.60;;;34.65;;
60098;SDS011;62818;49.394;8.686;2023-01-26T00:40:12;46.87;;;32.80;;
60098;SDS011;62818;49.394;8.686;2023-01-26T00:41:13;49.50;;;33.83;;
60098;SDS011;62818;49.394;8.686;2023-01-26T00:42:32;48.15;;;34.00;;
60098;SDS011;62818;49.394;8.686;2023-01-26T00:43:33;49.33;;;34.30;;
60098;SDS011;62818;49.394;8.686;2023-01-26T00:44:37;47.83;;;33.93;;
60098;SDS011;62818;49.394;8.686;2023-01-26T00:45:38;46.03;;;33.60;;
60098;SDS011;62818;49.394;8.686;2023-01-26T00:46:39;47.10;;;34.73;;
60098;SDS011;62818;49.394;8.686;2023-01-26T00:47:39;49.50;;;33.80;;
60098;SDS011;62818;49.394;8.686;2023-01-26T00:48:40;45.20;;;33.77;;
60098;SDS011;62818;49.394;8.686;2023-01-26T00:49:40;51.20;;;34.30;;
60098;SDS011;62818;49.394;8.686;2023-01-26T00:50:41;51.30;;;33.03;;
60098;SDS011;62818;49.394;8.686;2023-01-26T00:51:42;48.00;;;33.60;;
60098;SDS011;62818;49.394;8.686;2023-01-26T00:52:42;48.87;;;34.80;;
60098;SDS011;62818;49.394;8.686;2023-01-26T00:53:43;50.40;;;33.87;;
60098;SDS011;62818;49.394;8.686;2023-01-26T00:54:43;48.50;;;34.50;;
60098;SDS011;62818;49.394;8.686;2023-01-26T00:55:44;48.87;;;33.67;;
60098;SDS011;62818;49.394;8.686;2023-01-26T00:56:44;50.90;;;34.33;;
60098;SDS011;62818;49.394;8.686;2023-01-26T00:57:45;50.30;;;34.77;;
60098;SDS011;62818;49.394;8.686;2023-01-26T00:58:45;46.13;;;34.60;;
60098;SDS011;62818;49.394;8.686;2023-01-26T00:59:46;50.20;;;35.73;;
60098;SDS011;62818;49.394;8.686;2023-01-26T01:00:46;48.80;;;33.63;;
60098;SDS011;62818;49.394;8.686;2023-01-26T01:01:47;47.07;;;35.13;;
60098;SDS011;62818;49.394;8.686;2023-01-26T01:02:48;49.78;;;34.55;;
60098;SDS011;62818;49.394;8.686;2023-01-26T01:03:49;46.33;;;33.80;;
60098;SDS011;62818;49.394;8.686;2023-01-26T01:04:51;48.47;;;34.78;;
60098;SDS011;62818;49.394;8.686;2023-01-26T01:05:51;48.13;;;34.50;;
60098;SDS011;62818;49.394;8.686;2023-01-26T01:06:52;49.90;;;34.33;;
60098;SDS011;62818;49.394;8.686;2023-01-26T01:07:52;46.50;;;33.80;;
60098;SDS011;62818;49.394;8.686;2023-01-26T01:08:52;46.77;;;33.60;;
60098;SDS011;62818;49.394;8.686;2023-01-26T01:09:53;50.97;;;35.43;;
60098;SDS011;62818;49.394;8.686;2023-01-26T01:11:03;48.20;;;34.23;;
60098;SDS011;62818;49.394;8.686;2023-01-26T01:12:07;47.25;;;33.50;;
60098;SDS011;62818;49.394;8.686;2023-01-26T01:13:07;49.13;;;33.90;;
60098;SDS011;62818;49.394;8.686;2023-01-26T01:14:08;49.20;;;34.83;;
60098;SDS011;62818;49.394;8.686;2023-01-26T01:15:09;51.33;;;34.70;;
60098;SDS011;62818;49.394;8.686;2023-01-26T01:16:12;51.85;;;35.55;;
60098;SDS011;62818;49.394;8.686;2023-01-26T01:17:15;48.75;;;35.03;;
60098;SDS011;62818;49.394;8.686;2023-01-26T01:18:15;50.67;;;35.17;;
60098;SDS011;62818;49.394;8.686;2023-01-26T01:19:16;47.33;;;33.23;;
60098;SDS011;62818;49.394;8.686;2023-01-26T01:20:17;47.25;;;32.80;;
60098;SDS011;62818;49.394;8.686;2023-01-26T01:21:18;44.42;;;31.60;;
60098;SDS011;62818;49.394;8.686;2023-01-26T01:22:19;47.27;;;32.93;;
60098;SDS011;62818;49.394;8.686;2023-01-26T01:23:19;42.67;;;32.90;;
60098;SDS011;62818;49.394;8.686;2023-01-26T01:24:20;50.27;;;35.07;;
60098;SDS011;62818;49.394;8.686;2023-01-26T01:25:20;49.53;;;35.67;;
60098;SDS011;62818;49.394;8.686;2023-01-26T01:26:21;48.33;;;33.60;;
60098;SDS011;62818;49.394;8.686;2023-01-26T01:27:21;44.90;;;33.50;;
60098;SDS011;62818;49.394;8.686;2023-01-26T01:28:22;45.87;;;32.47;;
60098;SDS011;62818;49.394;8.686;2023-01-26T01:29:22;46.53;;;33.43;;
60098;SDS011;62818;49.394;8.686;2023-01-26T01:30:23;50.53;;;34.43;;
60098;SDS011;62818;49.394;8.686;2023-01-26T01:31:23;46.23;;;31.30;;
60098;SDS011;62818;49.394;8.686;2023-01-26T01:32:25;45.75;;;31.17;;
60098;SDS011;62818;49.394;8.686;2023-01-26T01:33:25;48.50;;;31.63;;
60098;SDS011;62818;49.394;8.686;2023-01-26T01:34:26;44.90;;;32.43;;
60098;SDS011;62818;49.394;8.686;2023-01-26T01:35:26;45.03;;;30.70;;
60098;SDS011;62818;49.394;8.686;2023-01-26T01:36:27;41.13;;;30.42;;
60098;SDS011;62818;49.394;8.686;2023-01-26T01:37:30;39.65;;;29.20;;
60098;SDS011;62818;49.394;8.686;2023-01-26T01:38:32;37.17;;;26.92;;
60098;SDS011;62818;49.394;8.686;2023-01-26T01:39:33;39.30;;;27.55;;
60098;SDS011;62818;49.394;8.686;2023-01-26T01:40:34;38.10;;;26.77;;
60098;SDS011;62818;49.394;8.686;2023-01-26T01:41:34;38.57;;;28.10;;
60098;SDS011;62818;49.394;8.686;2023-01-26T01:42:35;37.03;;;27.57;;
60098;SDS011;62818;49.394;8.686;2023-01-26T01:43:35;38.83;;;28.77;;
60098;SDS011;62818;49.394;8.686;2023-01-26T01:44:37;38.58;;;27.77;;
60098;SDS011;62818;49.394;8.686;2023-01-26T01:45:39;37.22;;;26.80;;
60098;SDS011;62818;49.394;8.686;2023-01-26T01:47:05;34.95;;;26.73;;
60098;SDS011;62818;49.394;8.686;2023-01-26T01:48:37;39.92;;;27.70;;
60098;SDS011;62818;49.394;8.686;2023-01-26T01:49:57;37.90;;;26.77;;
60098;SDS011;62818;49.394;8.686;2023-01-26T01:50:59;40.60;;;27.60;;
60098;SDS011;62818;49.394;8.686;2023-01-26T01:52:10;35.42;;;26.80;;
60098;SDS011;62818;49.394;8.686;2023-01-26T01:53:17;37.03;;;27.85;;
60098;SDS011;62818;49.394;8.686;2023-01-26T01:54:28;37.00;;;26.83;;
60098;SDS011;62818;49.394;8.686;2023-01-26T01:55:37;36.95;;;26.30;;
60098;SDS011;62818;49.394;8.686;2023-01-26T01:56:39;40.50;;;27.13;;
60098;SDS011;62818;49.394;8.686;2023-01-26T01:57:54;37.55;;;27.85;;
60098;SDS011;62818;49.394;8.686;2023-01-26T01:58:59;38.30;;;27.65;;
60098;SDS011;62818;49.394;8.686;2023-01-26T02:00:04;39.88;;;28.58;;
60098;SDS011;62818;49.394;8.686;2023-01-26T02:01:08;39.60;;;28.00;;
60098;SDS011;62818;49.394;8.686;2023-01-26T02:02:10;40.15;;;27.42;;
60098;SDS011;62818;49.394;8.686;2023-01-26T02:03:11;38.95;;;27.00;;
60098;SDS011;62818;49.394;8.686;2023-01-26T02:04:18;37.05;;;27.90;;
60098;SDS011;62818;49.394;8.686;2023-01-26T02:05:23;38.50;;;28.10;;
60098;SDS011;62818;49.394;8.686;2023-01-26T02:07:50;38.03;;;27.08;;
60098;SDS011;62818;49.394;8.686;2023-01-26T02:08:51;37.67;;;27.00;;
60098;SDS011;62818;49.394;8.686;2023-01-26T02:09:55;38.00;;;27.00;;
60098;SDS011;62818;49.394;8.686;2023-01-26T02:11:24;37.65;;;27.15;;
60098;SDS011;62818;49.394;8.686;2023-01-26T02:12:32;40.30;;;28.63;;
60098;SDS011;62818;49.394;8.686;2023-01-26T02:13:36;42.83;;;28.77;;
60098;SDS011;62818;49.394;8.686;2023-01-26T02:14:38;40.55;;;29.42;;
60098;SDS011;62818;49.394;8.686;2023-01-26T02:15:40;38.83;;;28.48;;
60098;SDS011;62818;49.394;8.686;2023-01-26T02:16:41;35.80;;;26.63;;
60098;SDS011;62818;49.394;8.686;2023-01-26T02:17:42;36.73;;;27.37;;
60098;SDS011;62818;49.394;8.686;2023-01-26T02:18:43;38.53;;;27.48;;
60098;SDS011;62818;49.394;8.686;2023-01-26T02:20:02;41.42;;;28.55;;
60098;SDS011;62818;49.394;8.686;2023-01-26T02:21:08;40.60;;;28.00;;
60098;SDS011;62818;49.394;8.686;2023-01-26T02:22:16;39.42;;;27.80;;
60098;SDS011;62818;49.394;8.686;2023-01-26T02:24:54;42.58;;;29.80;;
60098;SDS011;62818;49.394;8.686;2023-01-26T02:26:07;39.90;;;27.85;;
60098;SDS011;62818;49.394;8.686;2023-01-26T02:27:17;40.17;;;28.15;;
60098;SDS011;62818;49.394;8.686;2023-01-26T02:28:18;41.40;;;28.73;;
60098;SDS011;62818;49.394;8.686;2023-01-26T02:29:24;39.55;;;28.23;;
60098;SDS011;62818;49.394;8.686;2023-01-26T02:30:24;42.77;;;29.40;;
60098;SDS011;62818;49.394;8.686;2023-01-26T02:31:27;39.80;;;28.65;;
60098;SDS011;62818;49.394;8.686;2023-01-26T02:32:29;37.10;;;27.40;;
60098;SDS011;62818;49.394;8.686;2023-01-26T02:33:30;40.10;;;28.30;;
60098;SDS011;62818;49.394;8.686;2023-01-26T02:34:32;38.08;;;28.48;;
60098;SDS011;62818;49.394;8.686;2023-01-26T02:35:32;37.53;;;28.70;;
60098;SDS011;62818;49.394;8.686;2023-01-26T02:36:33;37.93;;;26.87;;
60098;SDS011;62818;49.394;8.686;2023-01-26T02:37:34;40.80;;;28.47;;
60098;SDS011;62818;49.394;8.686;2023-01-26T02:38:43;37.60;;;28.70;;
60098;SDS011;62818;49.394;8.686;2023-01-26T02:39:58;37.30;;;27.23;;
60098;SDS011;62818;49.394;8.686;2023-01-26T02:41:10;36.03;;;26.25;;
60098;SDS011;62818;49.394;8.686;2023-01-26T02:42:37;40.15;;;26.85;;
60098;SDS011;62818;49.394;8.686;2023-01-26T02:43:38;42.70;;;28.97;;
60098;SDS011;62818;49.394;8.686;2023-01-26T02:45:42;41.42;;;27.30;;
60098;SDS011;62818;49.394;8.686;2023-01-26T02:46:43;40.85;;;26.65;;
60098;SDS011;62818;49.394;8.686;2023-01-26T02:47:43;41.57;;;27.90;;
60098;SDS011;62818;49.394;8.686;2023-01-26T02:48:44;40.27;;;26.83;;
60098;SDS011;62818;49.394;8.686;2023-01-26T02:50:03;42.33;;;27.77;;
60098;SDS011;62818;49.394;8.686;2023-01-26T02:51:04;42.03;;;28.25;;
60098;SDS011;62818;49.394;8.686;2023-01-26T02:53:07;42.42;;;28.85;;
60098;SDS011;62818;49.394;8.686;2023-01-26T02:54:07;42.20;;;28.20;;
60098;SDS011;62818;49.394;8.686;2023-01-26T02:55:08;40.20;;;27.30;;
60098;SDS011;62818;49.394;8.686;2023-01-26T02:56:29;40.70;;;28.70;;
60098;SDS011;62818;49.394;8.686;2023-01-26T02:57:30;43.10;;;28.57;;
60098;SDS011;62818;49.394;8.686;2023-01-26T02:58:33;40.08;;;29.30;;
60098;SDS011;62818;49.394;8.686;2023-01-26T02:59:33;41.90;;;28.63;;
60098;SDS011;62818;49.394;8.686;2023-01-26T03:00:35;46.30;;;29.03;;
60098;SDS011;62818;49.394;8.686;2023-01-26T03:01:36;43.30;;;30.30;;
60098;SDS011;62818;49.394;8.686;2023-01-26T03:02:36;40.87;;;28.83;;
60098;SDS011;62818;49.394;8.686;2023-01-26T03:03:39;44.35;;;29.77;;
60098;SDS011;62818;49.394;8.686;2023-01-26T03:04:44;42.28;;;29.38;;
60098;SDS011;62818;49.394;8.686;2023-01-26T03:05:44;38.97;;;27.63;;
60098;SDS011;62818;49.394;8.686;2023-01-26T03:06:46;43.55;;;29.77;;
60098;SDS011;62818;49.394;8.686;2023-01-26T03:07:46;40.87;;;27.63;;
60098;SDS011;62818;49.394;8.686;2023-01-26T03:08:47;43.97;;;28.95;;
60098;SDS011;62818;49.394;8.686;2023-01-26T03:09:48;43.33;;;29.23;;
60098;SDS011;62818;49.394;8.686;2023-01-26T03:10:48;42.17;;;29.60;;
60098;SDS011;62818;49.394;8.686;2023-01-26T03:11:49;39.10;;;27.83;;
60098;SDS011;62818;49.394;8.686;2023-01-26T03:12:50;43.40;;;29.50;;
60098;SDS011;62818;49.394;8.686;2023-01-26T03:13:51;43.22;;;30.27;;
60098;SDS011;62818;49.394;8.686;2023-01-26T03:14:51;41.17;;;29.07;;
60098;SDS011;62818;49.394;8.686;2023-01-26T03:16:11;45.13;;;29.02;;
60098;SDS011;62818;49.394;8.686;2023-01-26T03:17:12;41.35;;;28.73;;
60098;SDS011;62818;49.394;8.686;2023-01-26T03:18:16;43.47;;;28.60;;
60098;SDS011;62818;49.394;8.686;2023-01-26T03:19:37;40.15;;;27.02;;
60098;SDS011;62818;49.394;8.686;2023-01-26T03:20:57;45.28;;;30.10;;
60098;SDS011;62818;49.394;8.686;2023-01-26T03:22:18;44.40;;;30.35;;
60098;SDS011;62818;49.394;8.686;2023-01-26T03:23:37;43.13;;;29.42;;
60098;SDS011;62818;49.394;8.686;2023-01-26T03:24:56;42.30;;;28.67;;
60098;SDS011;62818;49.394;8.686;2023-01-26T03:26:15;45.13;;;30.92;;
60098;SDS011;62818;49.394;8.686;2023-01-26T03:27:39;45.42;;;30.75;;
60098;SDS011;62818;49.394;8.686;2023-01-26T03:28:43;47.08;;;30.88;;
60098;SDS011;62818;49.394;8.686;2023-01-26T03:29:43;45.87;;;30.73;;
60098;SDS011;62818;49.394;8.686;2023-01-26T03:30:44;40.85;;;29.05;;
60098;SDS011;62818;49.394;8.686;2023-01-26T03:31:45;45.30;;;30.87;;
60098;SDS011;62818;49.394;8.686;2023-01-26T03:32:45;45.93;;;29.87;;
60098;SDS011;62818;49.394;8.686;2023-01-26T03:33:46;44.60;;;29.43;;
60098;SDS011;62818;49.394;8.686;2023-01-26T03:34:46;47.10;;;31.10;;
60098;SDS011;62818;49.394;8.686;2023-01-26T03:35:47;46.33;;;30.57;;
60098;SDS011;62818;49.394;8.686;2023-01-26T03:36:47;45.40;;;30.10;;
60098;SDS011;62818;49.394;8.686;2023-01-26T03:37:48;42.57;;;28.57;;
60098;SDS011;62818;49.394;8.686;2023-01-26T03:38:53;44.78;;;31.23;;
60098;SDS011;62818;49.394;8.686;2023-01-26T03:39:54;44.13;;;28.57;;
60098;SDS011;62818;49.394;8.686;2023-01-26T03:41:12;44.63;;;29.70;;
60098;SDS011;62818;49.394;8.686;2023-01-26T03:42:33;45.13;;;29.85;;
60098;SDS011;62818;49.394;8.686;2023-01-26T03:43:53;45.38;;;30.08;;
60098;SDS011;62818;49.394;8.686;2023-01-26T03:45:12;44.25;;;29.13;;
60098;SDS011;62818;49.394;8.686;2023-01-26T03:46:31;44.88;;;30.80;;
60098;SDS011;62818;49.394;8.686;2023-01-26T03:47:50;43.80;;;30.13;;
60098;SDS011;62818;49.394;8.686;2023-01-26T03:49:09;44.03;;;29.40;;
60098;SDS011;62818;49.394;8.686;2023-01-26T03:50:28;44.53;;;29.83;;
60098;SDS011;62818;49.394;8.686;2023-01-26T03:51:47;44.72;;;30.15;;
60098;SDS011;62818;49.394;8.686;2023-01-26T03:53:16;45.60;;;31.63;;
60098;SDS011;62818;49.394;8.686;2023-01-26T03:54:40;45.72;;;31.65;;
60098;SDS011;62818;49.394;8.686;2023-01-26T03:55:59;44.80;;;31.45;;
60098;SDS011;62818;49.394;8.686;2023-01-26T03:57:19;44.83;;;30.02;;
60098;SDS011;62818;49.394;8.686;2023-01-26T03:58:20;43.90;;;30.15;;
60098;SDS011;62818;49.394;8.686;2023-01-26T03:59:20;42.67;;;29.67;;
60098;SDS011;62818;49.394;8.686;2023-01-26T04:00:36;44.67;;;30.27;;
60098;SDS011;62818;49.394;8.686;2023-01-26T04:01:38;46.33;;;30.13;;
60098;SDS011;62818;49.394;8.686;2023-01-26T04:02:41;44.22;;;31.05;;
60098;SDS011;62818;49.394;8.686;2023-01-26T04:04:00;45.60;;;30.83;;
60098;SDS011;62818;49.394;8.686;2023-01-26T04:05:19;49.78;;;31.42;;
60098;SDS011;62818;49.394;8.686;2023-01-26T04:06:39;46.22;;;30.40;;
60098;SDS011;62818;49.394;8.686;2023-01-26T04:08:02;40.35;;;27.88;;
60098;SDS011;62818;49.394;8.686;2023-01-26T04:09:23;38.75;;;27.60;;
60098;SDS011;62818;49.394;8.686;2023-01-26T04:10:24;42.50;;;29.30;;
60098;SDS011;62818;49.394;8.686;2023-01-26T04:11:26;38.05;;;26.83;;
60098;SDS011;62818;49.394;8.686;2023-01-26T04:12:26;47.73;;;29.67;;
60098;SDS011;62818;49.394;8.686;2023-01-26T04:13:27;41.87;;;29.73;;
60098;SDS011;62818;49.394;8.686;2023-01-26T04:14:46;40.90;;;28.05;;
60098;SDS011;62818;49.394;8.686;2023-01-26T04:16:05;42.65;;;29.33;;
60098;SDS011;62818;49.394;8.686;2023-01-26T04:17:26;38.90;;;27.60;;
60098;SDS011;62818;49.394;8.686;2023-01-26T04:18:45;42.65;;;28.98;;
60098;SDS011;62818;49.394;8.686;2023-01-26T04:20:04;42.63;;;28.33;;
60098;SDS011;62818;49.394;8.686;2023-01-26T04:21:24;40.22;;;27.45;;
60098;SDS011;62818;49.394;8.686;2023-01-26T04:22:36;42.58;;;29.60;;
60098;SDS011;62818;49.394;8.686;2023-01-26T04:23:44;42.35;;;28.80;;
60098;SDS011;62818;49.394;8.686;2023-01-26T04:24:44;40.37;;;28.03;;
60098;SDS011;62818;49.394;8.686;2023-01-26T04:25:45;40.90;;;28.03;;
60098;SDS011;62818;49.394;8.686;2023-01-26T04:26:47;44.03;;;29.77;;
60098;SDS011;62818;49.394;8.686;2023-01-26T04:27:48;45.00;;;29.63;;
60098;SDS011;62818;49.394;8.686;2023-01-26T04:28:48;46.47;;;29.83;;
60098;SDS011;62818;49.394;8.686;2023-01-26T04:29:49;41.00;;;28.75;;
60098;SDS011;62818;49.394;8.686;2023-01-26T04:30:50;40.97;;;27.57;;
60098;SDS011;62818;49.394;8.686;2023-01-26T04:31:51;40.20;;;27.23;;
60098;SDS011;62818;49.394;8.686;2023-01-26T04:32:51;42.40;;;27.47;;
60098;SDS011;62818;49.394;8.686;2023-01-26T04:33:51;44.27;;;28.20;;
60098;SDS011;62818;49.394;8.686;2023-01-26T04:34:52;41.47;;;26.97;;
60098;SDS011;62818;49.394;8.686;2023-01-26T04:35:52;42.47;;;29.63;;
60098;SDS011;62818;49.394;8.686;2023-01-26T04:36:53;38.27;;;27.70;;
60098;SDS011;62818;49.394;8.686;2023-01-26T04:37:53;42.97;;;29.17;;
60098;SDS011;62818;49.394;8.686;2023-01-26T04:38:54;40.97;;;28.47;;
60098;SDS011;62818;49.394;8.686;2023-01-26T04:39:56;42.30;;;29.63;;
60098;SDS011;62818;49.394;8.686;2023-01-26T04:40:56;40.10;;;29.63;;
60098;SDS011;62818;49.394;8.686;2023-01-26T04:41:57;47.37;;;28.70;;
60098;SDS011;62818;49.394;8.686;2023-01-26T04:42:57;40.50;;;28.83;;
60098;SDS011;62818;49.394;8.686;2023-01-26T04:43:58;39.87;;;27.10;;
60098;SDS011;62818;49.394;8.686;2023-01-26T04:44:58;38.77;;;27.30;;
60098;SDS011;62818;49.394;8.686;2023-01-26T04:45:59;43.20;;;28.10;;
60098;SDS011;62818;49.394;8.686;2023-01-26T04:47:06;41.03;;;27.15;;
60098;SDS011;62818;49.394;8.686;2023-01-26T04:48:06;42.73;;;29.93;;
60098;SDS011;62818;49.394;8.686;2023-01-26T04:49:07;42.63;;;29.10;;
60098;SDS011;62818;49.394;8.686;2023-01-26T04:50:08;39.03;;;27.42;;
60098;SDS011;62818;49.394;8.686;2023-01-26T04:51:13;43.35;;;27.92;;
60098;SDS011;62818;49.394;8.686;2023-01-26T04:52:19;38.80;;;26.55;;
60098;SDS011;62818;49.394;8.686;2023-01-26T04:53:20;39.80;;;27.30;;
60098;SDS011;62818;49.394;8.686;2023-01-26T04:54:21;41.07;;;27.00;;
60098;SDS011;62818;49.394;8.686;2023-01-26T04:55:21;41.57;;;27.27;;
60098;SDS011;62818;49.394;8.686;2023-01-26T04:56:26;39.13;;;27.80;;
60098;SDS011;62818;49.394;8.686;2023-01-26T04:57:30;37.08;;;26.85;;
60098;SDS011;62818;49.394;8.686;2023-01-26T04:58:31;43.30;;;27.53;;
60098;SDS011;62818;49.394;8.686;2023-01-26T04:59:32;39.22;;;26.60;;
60098;SDS011;62818;49.394;8.686;2023-01-26T05:00:33;39.17;;;28.00;;
60098;SDS011;62818;49.394;8.686;2023-01-26T05:01:33;39.83;;;27.37;;
60098;SDS011;62818;49.394;8.686;2023-01-26T05:02:34;44.50;;;26.23;;
60098;SDS011;62818;49.394;8.686;2023-01-26T05:03:34;36.20;;;25.87;;
60098;SDS011;62818;49.394;8.686;2023-01-26T05:04:35;41.73;;;27.17;;
60098;SDS011;62818;49.394;8.686;2023-01-26T05:05:39;42.00;;;27.73;;
60098;SDS011;62818;49.394;8.686;2023-01-26T05:06:39;38.22;;;27.48;;
60098;SDS011;62818;49.394;8.686;2023-01-26T05:07:41;40.92;;;27.83;;
60098;SDS011;62818;49.394;8.686;2023-01-26T05:08:41;38.20;;;26.53;;
60098;SDS011;62818;49.394;8.686;2023-01-26T05:09:42;33.47;;;24.30;;
60098;SDS011;62818;49.394;8.686;2023-01-26T05:10:42;42.50;;;27.27;;
60098;SDS011;62818;49.394;8.686;2023-01-26T05:11:43;42.15;;;25.95;;
60098;SDS011;62818;49.394;8.686;2023-01-26T05:12:44;36.47;;;26.10;;
60098;SDS011;62818;49.394;8.686;2023-01-26T05:13:45;39.85;;;28.05;;
60098;SDS011;62818;49.394;8.686;2023-01-26T05:14:46;39.05;;;25.83;;
60098;SDS011;62818;49.394;8.686;2023-01-26T05:15:46;36.13;;;25.90;;
60098;SDS011;62818;49.394;8.686;2023-01-26T05:16:47;36.83;;;24.73;;
60098;SDS011;62818;49.394;8.686;2023-01-26T05:17:47;40.17;;;25.43;;
60098;SDS011;62818;49.394;8.686;2023-01-26T05:18:48;34.93;;;24.70;;
60098;SDS011;62818;49.394;8.686;2023-01-26T05:19:48;36.10;;;25.43;;
60098;SDS011;62818;49.394;8.686;2023-01-26T05:20:49;35.47;;;24.83;;
60098;SDS011;62818;49.394;8.686;2023-01-26T05:21:49;39.10;;;25.10;;
60098;SDS011;62818;49.394;8.686;2023-01-26T05:22:50;38.43;;;25.53;;
60098;SDS011;62818;49.394;8.686;2023-01-26T05:23:50;37.73;;;25.67;;
60098;SDS011;62818;49.394;8.686;2023-01-26T05:24:51;35.23;;;24.43;;
60098;SDS011;62818;49.394;8.686;2023-01-26T05:25:51;35.70;;;24.60;;
60098;SDS011;62818;49.394;8.686;2023-01-26T05:26:52;34.80;;;24.47;;
60098;SDS011;62818;49.394;8.686;2023-01-26T05:28:12;34.40;;;24.77;;
60098;SDS011;62818;49.394;8.686;2023-01-26T05:29:13;32.37;;;23.40;;
60098;SDS011;62818;49.394;8.686;2023-01-26T05:30:13;32.50;;;23.23;;
60098;SDS011;62818;49.394;8.686;2023-01-26T05:31:15;34.05;;;24.77;;
60098;SDS011;62818;49.394;8.686;2023-01-26T05:32:15;38.50;;;25.77;;
60098;SDS011;62818;49.394;8.686;2023-01-26T05:33:16;38.40;;;26.42;;
60098;SDS011;62818;49.394;8.686;2023-01-26T05:34:20;36.53;;;25.27;;
60098;SDS011;62818;49.394;8.686;2023-01-26T05:35:21;35.50;;;25.07;;
60098;SDS011;62818;49.394;8.686;2023-01-26T05:36:21;34.10;;;25.70;;
60098;SDS011;62818;49.394;8.686;2023-01-26T05:37:25;33.97;;;24.03;;
60098;SDS011;62818;49.394;8.686;2023-01-26T05:38:27;36.17;;;24.42;;
60098;SDS011;62818;49.394;8.686;2023-01-26T05:39:28;30.03;;;22.53;;
60098;SDS011;62818;49.394;8.686;2023-01-26T05:40:28;28.97;;;20.30;;
60098;SDS011;62818;49.394;8.686;2023-01-26T05:41:29;31.70;;;22.03;;
60098;SDS011;62818;49.394;8.686;2023-01-26T05:42:29;29.73;;;21.90;;
60098;SDS011;62818;49.394;8.686;2023-01-26T05:43:30;30.40;;;21.00;;
60098;SDS011;62818;49.394;8.686;2023-01-26T05:44:30;29.20;;;20.77;;
60098;SDS011;62818;49.394;8.686;2023-01-26T05:45:31;31.00;;;20.47;;
60098;SDS011;62818;49.394;8.686;2023-01-26T05:46:31;29.53;;;21.27;;
60098;SDS011;62818;49.394;8.686;2023-01-26T05:47:32;29.37;;;20.97;;
60098;SDS011;62818;49.394;8.686;2023-01-26T05:48:32;27.60;;;20.37;;
60098;SDS011;62818;49.394;8.686;2023-01-26T05:49:33;29.50;;;21.00;;
60098;SDS011;62818;49.394;8.686;2023-01-26T05:50:34;27.63;;;20.13;;
60098;SDS011;62818;49.394;8.686;2023-01-26T05:51:34;29.37;;;22.37;;
60098;SDS011;62818;49.394;8.686;2023-01-26T05:52:35;31.90;;;21.27;;
60098;SDS011;62818;49.394;8.686;2023-01-26T05:53:36;29.70;;;20.40;;
60098;SDS011;62818;49.394;8.686;2023-01-26T05:54:39;32.20;;;22.77;;
60098;SDS011;62818;49.394;8.686;2023-01-26T05:55:40;28.80;;;20.37;;
60098;SDS011;62818;49.394;8.686;2023-01-26T05:56:40;28.13;;;20.47;;
60098;SDS011;62818;49.394;8.686;2023-01-26T05:57:41;28.10;;;20.63;;
60098;SDS011;62818;49.394;8.686;2023-01-26T05:58:41;26.43;;;17.53;;
60098;SDS011;62818;49.394;8.686;2023-01-26T05:59:42;26.03;;;19.73;;
60098;SDS011;62818;49.394;8.686;2023-01-26T06:00:42;29.00;;;19.37;;
60098;SDS011;62818;49.394;8.686;2023-01-26T06:01:43;26.30;;;18.30;;
60098;SDS011;62818;49.394;8.686;2023-01-26T06:02:43;30.40;;;20.23;;
60098;SDS011;62818;49.394;8.686;2023-01-26T06:03:44;27.60;;;19.93;;
60098;SDS011;62818;49.394;8.686;2023-01-26T06:04:44;32.23;;;19.97;;
60098;SDS011;62818;49.394;8.686;2023-01-26T06:05:50;32.07;;;21.53;;
60098;SDS011;62818;49.394;8.686;2023-01-26T06:06:54;29.02;;;21.70;;
60098;SDS011;62818;49.394;8.686;2023-01-26T06:07:56;32.47;;;21.00;;
60098;SDS011;62818;49.394;8.686;2023-01-26T06:08:57;30.00;;;21.00;;
60098;SDS011;62818;49.394;8.686;2023-01-26T06:09:58;28.50;;;21.20;;
60098;SDS011;62818;49.394;8.686;2023-01-26T06:10:59;30.07;;;20.57;;
60098;SDS011;62818;49.394;8.686;2023-01-26T06:12:00;27.45;;;19.77;;
60098;SDS011;62818;49.394;8.686;2023-01-26T06:13:00;29.03;;;21.00;;
60098;SDS011;62818;49.394;8.686;2023-01-26T06:14:01;30.07;;;21.33;;
60098;SDS011;62818;49.394;8.686;2023-01-26T06:15:02;29.93;;;21.03;;
60098;SDS011;62818;49.394;8.686;2023-01-26T06:16:04;27.83;;;20.08;;
60098;SDS011;62818;49.394;8.686;2023-01-26T06:17:04;30.27;;;20.10;;
60098;SDS011;62818;49.394;8.686;2023-01-26T06:18:05;34.57;;;21.57;;
60098;SDS011;62818;49.394;8.686;2023-01-26T06:19:05;27.43;;;19.27;;